UUEE/SVO METAR and TAF weather

Enter ICAO airport designator
Station Type Date Time Source
UUEE METAR 2022/12/04 06:00 UTC NOAA

UUEE 040600Z 17004MPS CAVOK M09/M12 Q1046 R06R/450140 R06C/450140 NOSIG


Station Type Date Time Source
UUEE Decoded METAR 2022/12/04 06:00 UTC NOAA

Moscow / Sheremet'Ye , Russia (UUEE) 55-59N 037-30E
Dec 04, 2022 - 01:00 AM EST / 2022.12.04 0600 UTC
Wind: from the S (170 degrees) at 9 MPH (8 KT):0
Visibility: greater than 7 mile(s):0
Temperature: 15 F (-9 C)
Windchill: 3 F (-16 C):1
Dew Point: 10 F (-12 C)
Relative Humidity: 78%
Pressure (altimeter): 30.89 in. Hg (1046 hPa)
ob: UUEE 040600Z 17004MPS CAVOK M09/M12 Q1046 R06R/450140 R06C/450140 NOSIG
cycle: 6

Station Type Date Time Source
UUEE TAF 2022/12/04 06:21 UTC NOAA

TAF UUEE 040452Z 0406/0506 16005MPS 9000 SCT016 TXM08/0412Z TNM14/0504Z

Example: see airport list